Weather at Charlotte Douglas International Airport

Public forecast

Using degrees Fahrenheit for public forecast. Weather courtesy of forecast.io.

Current aviation weather report (METAR) for Charlotte Douglas International Airport

Retrieved 2020/10/19 14:52 UTC (31 minutes ago):

KCLT 191452Z VRB04KT 10SM SCT250 18/10 A3031 RMK AO2 SLP261 T01830100 50005

Aviation forecast (TAF) for Charlotte Douglas International Airport

Retrieved 2020/10/19 12:33 UTC (3 hours ago):

TAF KCLT 191130Z 1912/2018 02003KT P6SM SCT250 FM191500 06003KT P6SM FEW040 SCT250 FM191800 15003KT P6SM FEW050 SCT250 FM192300 07003KT P6SM FEW250